createdAt,value
2022-09-20T00:00:59.364Z,26.8
2022-09-20T00:02:01.812Z,26.9
2022-09-20T00:03:04.301Z,26.9
2022-09-20T00:04:07.228Z,26.9
2022-09-20T00:05:10.672Z,26.9
2022-09-20T00:06:13.328Z,26.9
2022-09-20T00:07:15.820Z,26.9
2022-09-20T00:08:17.736Z,26.9
2022-09-20T00:09:20.206Z,26.9
2022-09-20T00:10:22.675Z,26.9
2022-09-20T00:11:24.342Z,26.9
2022-09-20T00:12:26.555Z,26.9
2022-09-20T00:13:29.072Z,26.9
2022-09-20T00:14:31.273Z,26.9
2022-09-20T00:15:33.481Z,26.9
2022-09-20T00:16:36.331Z,26.9
2022-09-20T00:17:38.729Z,26.9
2022-09-20T00:18:40.646Z,26.9
2022-09-20T00:19:43.136Z,26.9
2022-09-20T00:20:45.315Z,26.9
2022-09-20T00:21:47.510Z,26.9
2022-09-20T00:22:50.007Z,26.9
2022-09-20T00:23:52.470Z,26.9
2022-09-20T00:24:54.943Z,27
2022-09-20T00:25:57.119Z,27
2022-09-20T00:26:59.343Z,27
2022-09-20T00:28:01.802Z,27
2022-09-20T00:29:04.333Z,27
2022-09-20T00:30:06.543Z,27
2022-09-20T00:31:09.026Z,27
2022-09-20T00:32:11.757Z,27
2022-09-20T00:33:14.506Z,27
2022-09-20T00:34:16.736Z,27
2022-09-20T00:35:18.947Z,27
2022-09-20T00:36:21.428Z,27
2022-09-20T00:37:23.343Z,27
2022-09-20T00:38:25.542Z,27
2022-09-20T00:39:28.039Z,27
2022-09-20T00:40:31.006Z,27
2022-09-20T00:41:33.478Z,27
2022-09-20T00:42:35.691Z,27
2022-09-20T00:43:38.162Z,27
2022-09-20T00:44:40.693Z,27
2022-09-20T00:45:43.358Z,27
2022-09-20T00:46:45.996Z,27
2022-09-20T00:47:48.196Z,27
2022-09-20T00:48:50.398Z,27
2022-09-20T00:49:52.876Z,27
2022-09-20T00:50:55.344Z,27
2022-09-20T00:51:57.819Z,27
2022-09-20T00:53:00.281Z,27
2022-09-20T00:54:02.485Z,27
2022-09-20T00:55:04.961Z,27
2022-09-20T00:56:07.441Z,27
2022-09-20T00:57:09.907Z,27
2022-09-20T00:58:12.401Z,27
2022-09-20T00:59:14.308Z,27
2022-09-20T01:00:16.277Z,27
2022-09-20T01:01:18.705Z,27
2022-09-20T01:02:21.714Z,27
2022-09-20T01:03:23.565Z,27
2022-09-20T01:04:26.066Z,27
2022-09-20T01:05:28.239Z,27
2022-09-20T01:06:30.414Z,27
2022-09-20T01:07:32.891Z,27
2022-09-20T01:08:35.367Z,27
2022-09-20T01:09:37.589Z,27
2022-09-20T01:10:40.074Z,27
2022-09-20T01:11:42.265Z,27
2022-09-20T01:12:44.738Z,27
2022-09-20T01:13:46.942Z,27
2022-09-20T01:14:49.149Z,27
2022-09-20T01:15:51.396Z,27
2022-09-20T01:16:54.237Z,27
2022-09-20T01:17:56.767Z,27
2022-09-20T01:18:59.248Z,27
2022-09-20T01:20:01.150Z,27
2022-09-20T01:21:03.620Z,27
2022-09-20T01:22:05.820Z,27
2022-09-20T01:23:08.016Z,27
2022-09-20T01:24:10.233Z,27
2022-09-20T01:25:12.711Z,27
2022-09-20T01:26:15.198Z,27
2022-09-20T01:27:17.693Z,27.1
2022-09-20T01:28:19.895Z,27.1
2022-09-20T01:29:22.106Z,27
2022-09-20T01:30:24.614Z,27.1
2022-09-20T01:31:27.132Z,27.1
2022-09-20T01:32:29.316Z,27.1
2022-09-20T01:33:31.525Z,27.1
2022-09-20T01:34:34.005Z,27.1
2022-09-20T01:35:36.210Z,27.1
2022-09-20T01:36:38.694Z,27.1
2022-09-20T01:37:41.161Z,27.1
2022-09-20T01:38:43.636Z,27.1
2022-09-20T01:39:45.829Z,27.1
2022-09-20T01:40:48.557Z,27.1
2022-09-20T01:41:50.774Z,27.1
2022-09-20T01:42:52.984Z,27.1
2022-09-20T01:43:55.554Z,27.1
2022-09-20T01:44:58.161Z,27.1
2022-09-20T01:46:00.560Z,27.1
2022-09-20T01:47:03.171Z,27.1
2022-09-20T01:48:05.877Z,27.1
2022-09-20T01:49:08.628Z,27.1
2022-09-20T01:50:10.701Z,27.1
2022-09-20T01:51:12.896Z,27.1
2022-09-20T01:52:15.068Z,27.1
2022-09-20T01:53:17.267Z,27.1
2022-09-20T01:54:19.738Z,27.1
2022-09-20T01:55:21.934Z,27.1
2022-09-20T01:56:23.870Z,27.1
2022-09-20T01:58:30.487Z,27.1
2022-09-20T01:59:33.056Z,27.1
2022-09-20T02:00:35.561Z,27.1
2022-09-20T02:01:38.293Z,27.1
2022-09-20T02:02:41.250Z,27.1
2022-09-20T02:03:43.638Z,27.1
2022-09-20T02:04:45.855Z,27.1
2022-09-20T02:05:48.029Z,27.1
2022-09-20T02:06:50.223Z,27.1
2022-09-20T02:07:52.148Z,27.1
2022-09-20T02:08:54.363Z,27.1
2022-09-20T02:09:57.001Z,27.1
2022-09-20T02:10:59.473Z,27.1
2022-09-20T02:12:01.977Z,27.1
2022-09-20T02:13:04.455Z,27.1
2022-09-20T02:14:07.254Z,27.1
2022-09-20T02:15:09.905Z,27.1
2022-09-20T02:16:12.567Z,27.1
2022-09-20T02:17:15.141Z,27.1
2022-09-20T02:18:17.670Z,27.1
2022-09-20T02:19:19.884Z,27.1
2022-09-20T02:20:22.351Z,27.1
2022-09-20T02:21:24.297Z,27.1
2022-09-20T02:22:26.487Z,27.1
2022-09-20T02:23:28.969Z,27.1
2022-09-20T02:24:31.164Z,27.1
2022-09-20T02:25:33.637Z,27.1
2022-09-20T02:26:36.111Z,27.1
2022-09-20T02:27:38.321Z,27.1
2022-09-20T02:28:40.220Z,27.1
2022-09-20T02:29:42.694Z,27.1
2022-09-20T02:30:44.865Z,27.1
2022-09-20T02:31:47.544Z,27.1
2022-09-20T02:32:50.354Z,27.1
2022-09-20T02:33:53.046Z,27.1
2022-09-20T02:34:55.546Z,27.1
2022-09-20T02:35:58.019Z,27.1
2022-09-20T02:37:00.223Z,27.1
2022-09-20T02:38:02.425Z,27.1
2022-09-20T02:39:04.626Z,27.1
2022-09-20T02:40:07.259Z,27.1
2022-09-20T02:41:09.591Z,27.1
2022-09-20T02:42:12.061Z,27.1
2022-09-20T02:43:14.551Z,27.1
2022-09-20T02:44:16.456Z,27.1
2022-09-20T02:45:18.939Z,27.1
2022-09-20T02:46:21.513Z,27.1
2022-09-20T02:47:24.211Z,27.1
2022-09-20T02:48:26.750Z,27.1
2022-09-20T02:49:29.285Z,27.1
2022-09-20T02:50:31.767Z,27.1
2022-09-20T02:51:33.968Z,27.1
2022-09-20T02:52:36.444Z,27.1
2022-09-20T02:53:38.101Z,27.1
2022-09-20T02:54:40.571Z,27.1
2022-09-20T02:55:43.042Z,27.1
2022-09-20T02:56:45.509Z,27.1
2022-09-20T02:57:47.990Z,27.1
2022-09-20T02:58:49.900Z,27.1
2022-09-20T02:59:52.119Z,27.1
2022-09-20T03:00:54.839Z,27.1
2022-09-20T03:01:57.384Z,27.1
2022-09-20T03:02:59.716Z,27.1
2022-09-20T03:04:02.183Z,27.1
2022-09-20T03:05:04.695Z,27.1
2022-09-20T03:06:07.182Z,27.1
2022-09-20T03:07:09.357Z,27.1
2022-09-20T03:08:11.831Z,27
2022-09-20T03:09:14.296Z,27
2022-09-20T03:10:16.764Z,27
2022-09-20T03:11:18.950Z,27
2022-09-20T03:12:21.428Z,27
2022-09-20T03:13:23.626Z,27
2022-09-20T03:14:25.845Z,27
2022-09-20T03:15:28.035Z,26.9
2022-09-20T03:16:30.758Z,26.9
2022-09-20T03:17:33.402Z,26.9
2022-09-20T03:18:35.888Z,26.9
2022-09-20T03:19:38.076Z,26.9
2022-09-20T03:20:40.309Z,26.9
2022-09-20T03:21:42.567Z,26.9
2022-09-20T03:22:44.501Z,26.9
2022-09-20T03:23:46.695Z,26.8
2022-09-20T03:24:49.175Z,26.8
2022-09-20T03:25:51.644Z,26.8
2022-09-20T03:26:53.265Z,26.8
2022-09-20T03:27:55.458Z,26.8
2022-09-20T03:28:57.962Z,26.8
2022-09-20T03:30:00.233Z,26.8
2022-09-20T03:31:02.712Z,26.8
2022-09-20T03:32:05.466Z,26.8
2022-09-20T03:33:08.162Z,26.8
2022-09-20T03:34:10.665Z,26.8
2022-09-20T03:35:13.142Z,26.8
2022-09-20T03:36:15.366Z,26.7
2022-09-20T03:37:17.847Z,26.7
2022-09-20T03:38:20.319Z,26.7
2022-09-20T03:39:22.794Z,26.7
2022-09-20T03:40:25.523Z,26.7
2022-09-20T03:41:28.015Z,26.7
2022-09-20T03:42:30.228Z,26.7
2022-09-20T03:43:32.403Z,26.7
2022-09-20T03:44:34.604Z,26.7
2022-09-20T03:45:37.015Z,26.7
2022-09-20T03:46:39.599Z,26.7
2022-09-20T03:47:42.069Z,26.7
2022-09-20T03:48:44.283Z,26.6
2022-09-20T03:49:46.789Z,26.7
2022-09-20T03:50:49.255Z,26.6
2022-09-20T03:51:51.500Z,26.6
2022-09-20T03:52:53.984Z,26.6
2022-09-20T03:53:56.348Z,26.6
2022-09-20T03:54:58.856Z,26.6
2022-09-20T03:56:01.326Z,26.6
2022-09-20T03:57:03.799Z,26.6
2022-09-20T03:59:11.272Z,26.6
2022-09-20T04:00:13.182Z,26.6
2022-09-20T04:01:16.003Z,26.6
2022-09-20T04:02:18.257Z,26.6
2022-09-20T04:03:20.888Z,26.6
2022-09-20T04:04:23.084Z,26.6
2022-09-20T04:05:25.314Z,26.6
2022-09-20T04:06:27.796Z,26.6
2022-09-20T04:07:30.308Z,26.6
2022-09-20T04:09:38.384Z,26.6
2022-09-20T04:10:40.749Z,26.6
2022-09-20T04:11:43.225Z,26.6
2022-09-20T04:12:45.703Z,26.6
2022-09-20T04:13:48.173Z,26.6
2022-09-20T04:14:50.648Z,26.6
2022-09-20T04:15:53.123Z,26.6
2022-09-20T04:16:55.925Z,26.6
2022-09-20T04:17:58.272Z,26.5
2022-09-20T04:19:00.448Z,26.6
2022-09-20T04:20:02.656Z,26.5
2022-09-20T04:21:05.160Z,26.6
2022-09-20T04:22:07.350Z,26.6
2022-09-20T04:23:09.337Z,26.6
2022-09-20T04:24:11.818Z,26.5
2022-09-20T04:25:14.027Z,26.6
2022-09-20T04:26:16.203Z,26.6
2022-09-20T04:27:18.684Z,26.5
2022-09-20T04:28:20.885Z,26.5
2022-09-20T04:29:23.064Z,26.5
2022-09-20T04:30:25.269Z,26.6
2022-09-20T04:31:27.909Z,26.5
2022-09-20T04:32:30.506Z,26.6
2022-09-20T04:33:32.674Z,26.6
2022-09-20T04:34:35.160Z,26.5
2022-09-20T04:35:37.355Z,26.5
2022-09-20T04:36:39.846Z,26.5
2022-09-20T04:37:42.323Z,26.6
2022-09-20T04:38:44.534Z,26.6
2022-09-20T04:39:47.019Z,26.5
2022-09-20T04:40:49.567Z,26.6
2022-09-20T04:41:51.879Z,26.5
2022-09-20T04:42:54.364Z,26.5
2022-09-20T04:43:56.851Z,26.5
2022-09-20T04:44:59.330Z,26.6
2022-09-20T04:46:02.056Z,26.5
2022-09-20T04:47:04.832Z,26.5
2022-09-20T04:48:07.331Z,26.5
2022-09-20T04:49:09.812Z,26.5
2022-09-20T04:50:12.391Z,26.5
2022-09-20T04:51:14.979Z,26.5
2022-09-20T04:52:17.462Z,26.5
2022-09-20T04:53:19.666Z,26.5
2022-09-20T04:54:22.179Z,26.5
2022-09-20T04:55:24.660Z,26.5
2022-09-20T04:56:26.855Z,26.5
2022-09-20T04:57:29.330Z,26.5
2022-09-20T04:58:31.528Z,26.5
2022-09-20T04:59:33.723Z,26.5
2022-09-20T05:00:36.188Z,26.5
2022-09-20T05:01:38.968Z,26.5
2022-09-20T05:02:41.590Z,26.5
2022-09-20T05:03:44.348Z,26.5
2022-09-20T05:04:46.824Z,26.5
2022-09-20T05:05:49.307Z,26.5
2022-09-20T05:06:51.483Z,26.5
2022-09-20T05:07:53.972Z,26.5
2022-09-20T05:10:01.488Z,26.5
2022-09-20T05:11:03.975Z,26.5
2022-09-20T05:12:06.448Z,26.5
2022-09-20T05:13:08.644Z,26.5
2022-09-20T05:14:10.841Z,26.5
2022-09-20T05:15:13.311Z,26.5
2022-09-20T05:16:15.905Z,26.5
2022-09-20T05:17:18.442Z,26.5
2022-09-20T05:18:20.642Z,26.5
2022-09-20T05:19:23.151Z,26.5
2022-09-20T05:20:25.627Z,26.5
2022-09-20T05:21:27.567Z,26.5
2022-09-20T05:22:29.765Z,26.5
2022-09-20T05:23:32.265Z,26.5
2022-09-20T05:24:34.741Z,26.5
2022-09-20T05:25:36.976Z,26.5
2022-09-20T05:26:39.474Z,26.5
2022-09-20T05:27:41.979Z,26.5
2022-09-20T05:28:43.879Z,26.5
2022-09-20T05:29:46.073Z,26.5
2022-09-20T05:30:48.282Z,26.5
2022-09-20T05:31:50.994Z,26.5
2022-09-20T05:32:53.631Z,26.5
2022-09-20T05:33:55.933Z,26.5
2022-09-20T05:34:58.365Z,26.5
2022-09-20T05:36:00.273Z,26.5
2022-09-20T05:37:02.459Z,26.5
2022-09-20T05:38:04.929Z,26.5
2022-09-20T05:39:07.151Z,26.4
2022-09-20T05:40:09.794Z,26.4
2022-09-20T05:41:12.139Z,26.5
2022-09-20T05:42:14.374Z,26.4
2022-09-20T05:43:16.319Z,26.4
2022-09-20T05:44:18.521Z,26.4
2022-09-20T05:45:21.006Z,26.4
2022-09-20T05:46:23.212Z,26.4
2022-09-20T05:47:25.418Z,26.4
2022-09-20T05:48:27.077Z,26.4
2022-09-20T05:49:29.554Z,26.4
2022-09-20T05:50:32.036Z,26.4
2022-09-20T05:51:34.239Z,26.4
2022-09-20T05:52:36.712Z,26.4
2022-09-20T05:53:38.919Z,26.4
2022-09-20T05:54:41.417Z,26.4
2022-09-20T05:55:43.633Z,26.4
2022-09-20T05:56:45.886Z,26.4
2022-09-20T05:57:48.109Z,26.4
2022-09-20T05:58:50.008Z,26.4
2022-09-20T05:59:51.661Z,26.4
2022-09-20T06:00:54.299Z,26.4
2022-09-20T06:01:57.007Z,26.4
2022-09-20T06:02:59.380Z,26.4
2022-09-20T06:04:01.574Z,26.4
2022-09-20T06:05:04.057Z,26.4
2022-09-20T06:06:06.540Z,26.4
2022-09-20T06:07:08.488Z,26.4
2022-09-20T06:08:10.446Z,26.4
2022-09-20T06:09:12.938Z,26.4
2022-09-20T06:10:15.183Z,26.4
2022-09-20T06:11:17.413Z,26.4
2022-09-20T06:12:19.678Z,26.4
2022-09-20T06:13:22.211Z,26.4
2022-09-20T06:14:24.421Z,26.4
2022-09-20T06:15:26.090Z,26.4
2022-09-20T06:16:28.407Z,26.4
2022-09-20T06:17:31.141Z,26.4
2022-09-20T06:18:33.844Z,26.4
2022-09-20T06:19:36.412Z,26.4
2022-09-20T06:20:38.951Z,26.4
2022-09-20T06:21:41.485Z,26.4
2022-09-20T06:22:43.705Z,26.4
2022-09-20T06:23:46.212Z,26.4
2022-09-20T06:24:48.707Z,26.4
2022-09-20T06:25:51.246Z,26.4
2022-09-20T06:26:53.727Z,26.4
2022-09-20T06:27:56.271Z,26.4
2022-09-20T06:28:59.634Z,26.4
2022-09-20T06:30:01.888Z,26.4
2022-09-20T06:31:04.688Z,26.4
2022-09-20T06:32:07.170Z,26.4
2022-09-20T06:33:09.683Z,26.4
2022-09-20T06:34:12.179Z,26.4
2022-09-20T06:35:14.388Z,26.4
2022-09-20T06:36:16.614Z,26.4
2022-09-20T06:37:18.868Z,26.4
2022-09-20T06:38:21.350Z,26.4
2022-09-20T06:39:23.530Z,26.4
2022-09-20T06:40:26.114Z,26.4
2022-09-20T06:41:29.039Z,26.4
2022-09-20T06:42:31.274Z,26.4
2022-09-20T06:43:33.259Z,26.4
2022-09-20T06:44:35.776Z,26.4
2022-09-20T06:45:38.335Z,26.4
2022-09-20T06:46:40.955Z,26.4
2022-09-20T06:47:43.437Z,26.4
2022-09-20T06:48:45.689Z,26.4
2022-09-20T06:49:48.170Z,26.4
2022-09-20T06:50:50.691Z,26.4
2022-09-20T06:51:53.171Z,26.4
2022-09-20T06:52:55.750Z,26.4
2022-09-20T06:53:57.946Z,26.4
2022-09-20T06:55:00.143Z,26.4
2022-09-20T06:56:01.786Z,26.4
2022-09-20T06:57:03.995Z,26.4
2022-09-20T06:58:06.196Z,26.4
2022-09-20T06:59:08.891Z,26.4
2022-09-20T07:00:11.384Z,26.4
2022-09-20T07:01:13.518Z,26.4
2022-09-20T07:02:20.597Z,26.4
2022-09-20T07:03:22.938Z,26.4
2022-09-20T07:04:25.170Z,26.4
2022-09-20T07:05:27.384Z,26.4
2022-09-20T07:06:29.326Z,26.4
2022-09-20T07:07:31.813Z,26.4
2022-09-20T07:08:34.321Z,26.4
2022-09-20T07:09:36.837Z,26.4
2022-09-20T07:10:39.054Z,26.4
2022-09-20T07:11:41.265Z,26.4
2022-09-20T07:12:43.495Z,26.4
2022-09-20T07:13:45.697Z,26.4
2022-09-20T07:14:48.247Z,26.4
2022-09-20T07:15:50.481Z,26.4
2022-09-20T07:16:53.117Z,26.4
2022-09-20T07:17:55.476Z,26.4
2022-09-20T07:18:58.069Z,26.4
2022-09-20T07:20:00.287Z,26.4
2022-09-20T07:21:02.658Z,26.4
2022-09-20T07:22:04.876Z,26.4
2022-09-20T07:23:07.123Z,26.4
2022-09-20T07:24:09.665Z,26.4
2022-09-20T07:25:12.146Z,26.3
2022-09-20T07:26:14.074Z,26.3
2022-09-20T07:27:16.565Z,26.3
2022-09-20T07:28:19.059Z,26.4
2022-09-20T07:29:21.536Z,26.3
2022-09-20T07:30:24.243Z,26.3
2022-09-20T07:31:26.988Z,26.3
2022-09-20T07:32:29.364Z,26.3
2022-09-20T07:33:31.591Z,26.3
2022-09-20T07:34:34.102Z,26.3
2022-09-20T07:35:36.657Z,26.3
2022-09-20T07:36:38.899Z,26.3
2022-09-20T07:37:40.836Z,26.3
2022-09-20T07:38:43.360Z,26.3
2022-09-20T07:39:45.882Z,26.3
2022-09-20T07:40:47.996Z,26.3
2022-09-20T07:41:50.202Z,26.3
2022-09-20T07:43:57.728Z,26.3
2022-09-20T07:45:00.228Z,26.3
2022-09-20T07:46:02.885Z,26.3
2022-09-20T07:47:05.538Z,26.3
2022-09-20T07:48:07.755Z,26.3
2022-09-20T07:49:09.956Z,26.3
2022-09-20T07:50:12.180Z,26.3
2022-09-20T07:51:14.395Z,26.3
2022-09-20T07:52:16.879Z,26.3
2022-09-20T07:53:19.365Z,26.3
2022-09-20T07:54:21.845Z,26.3
2022-09-20T07:55:24.074Z,26.3
2022-09-20T07:56:26.574Z,26.3
2022-09-20T07:57:29.065Z,26.3
2022-09-20T07:58:31.279Z,26.3
2022-09-20T07:59:33.750Z,26.3
2022-09-20T08:00:35.984Z,26.3
2022-09-20T08:01:38.526Z,26.3
2022-09-20T08:02:41.313Z,26.3
2022-09-20T08:03:43.527Z,26.3
2022-09-20T08:04:45.749Z,26.3
2022-09-20T08:05:48.256Z,26.3
2022-09-20T08:06:50.735Z,26.3
2022-09-20T08:07:53.236Z,26.3
2022-09-20T08:08:55.566Z,26.3
2022-09-20T08:09:57.900Z,26.3
2022-09-20T08:10:59.874Z,26.3
2022-09-20T08:14:11.790Z,26.3
2022-09-20T08:15:14.003Z,26.3
2022-09-20T08:16:16.436Z,26.3
2022-09-20T08:17:19.082Z,26.3
2022-09-20T08:18:21.592Z,26.3
2022-09-20T08:19:23.789Z,26.3
2022-09-20T08:20:26.278Z,26.3
2022-09-20T08:21:28.503Z,26.4
2022-09-20T08:22:30.744Z,26.4
2022-09-20T08:23:33.221Z,26.4
2022-09-20T08:24:35.433Z,26.4
2022-09-20T08:25:37.637Z,26.4
2022-09-20T08:26:39.840Z,26.4
2022-09-20T08:27:42.313Z,26.3
2022-09-20T08:28:44.547Z,26.4
2022-09-20T08:29:47.030Z,26.4
2022-09-20T08:30:49.558Z,26.4
2022-09-20T08:31:52.179Z,26.4
2022-09-20T08:32:54.898Z,26.4
2022-09-20T08:33:57.445Z,26.4
2022-09-20T08:34:59.924Z,26.4
2022-09-20T08:36:02.143Z,26.4
2022-09-20T08:37:04.635Z,26.4
2022-09-20T08:40:17.031Z,26.4
2022-09-20T08:41:19.397Z,26.4
2022-09-20T08:42:21.939Z,26.4
2022-09-20T08:43:24.432Z,26.4
2022-09-20T08:44:26.703Z,26.3
2022-09-20T08:46:34.072Z,26.3
2022-09-20T08:47:36.936Z,26.3
2022-09-20T08:48:39.448Z,26.3
2022-09-20T08:50:46.654Z,26.3
2022-09-20T08:51:49.692Z,26.3
2022-09-20T08:52:51.895Z,26.3
2022-09-20T08:53:54.089Z,26.3
2022-09-20T08:54:56.303Z,26.3
2022-09-20T08:55:58.771Z,26.3
2022-09-20T08:57:00.969Z,26.3
2022-09-20T08:59:08.146Z,26.3
2022-09-20T09:00:10.065Z,26.3
2022-09-20T09:01:12.722Z,26.3
2022-09-20T09:02:15.607Z,26.3
2022-09-20T09:03:18.287Z,26.3
2022-09-20T09:04:20.805Z,26.3
2022-09-20T09:05:23.322Z,26.3
2022-09-20T09:06:25.799Z,26.3
2022-09-20T09:07:28.031Z,26.3
2022-09-20T09:08:30.232Z,26.3
2022-09-20T09:12:49.908Z,26.3
2022-09-20T09:13:51.867Z,26.3
2022-09-20T09:14:54.330Z,26.3
2022-09-20T09:15:56.577Z,26.3
2022-09-20T09:16:59.062Z,26.3
2022-09-20T09:18:01.708Z,26.3
2022-09-20T09:19:04.266Z,26.3
2022-09-20T09:20:06.698Z,26.3
2022-09-20T09:21:09.253Z,26.3
2022-09-20T09:22:11.722Z,26.3
2022-09-20T09:23:13.382Z,26.4
2022-09-20T09:24:15.870Z,26.3
2022-09-20T09:25:18.353Z,26.3
2022-09-20T09:26:20.844Z,26.3
2022-09-20T09:27:23.392Z,26.3
2022-09-20T09:28:25.301Z,26.3
2022-09-20T09:30:32.731Z,26.3
2022-09-20T09:31:35.165Z,26.3
2022-09-20T09:32:37.661Z,26.3
2022-09-20T09:33:40.143Z,26.3
2022-09-20T09:34:42.677Z,26.3
2022-09-20T09:35:45.036Z,26.3
2022-09-20T09:36:47.595Z,26.3
2022-09-20T09:37:50.071Z,26.3
2022-09-20T09:38:52.577Z,26.3
2022-09-20T09:39:55.056Z,26.3
2022-09-20T09:40:57.549Z,26.3
2022-09-20T09:41:59.732Z,26.3
2022-09-20T09:43:01.961Z,26.3
2022-09-20T09:44:04.440Z,26.3
2022-09-20T09:45:06.934Z,26.3
2022-09-20T09:46:09.656Z,26.3
2022-09-20T09:47:12.001Z,26.3
2022-09-20T09:48:14.485Z,26.3
2022-09-20T09:49:17.385Z,26.3
2022-09-20T09:50:19.634Z,26.3
2022-09-20T09:51:22.167Z,26.3
2022-09-20T09:52:24.689Z,26.3
2022-09-20T09:53:27.189Z,26.3
2022-09-20T09:54:29.094Z,26.3
2022-09-20T09:55:31.308Z,26.3
2022-09-20T09:56:33.510Z,26.3
2022-09-20T09:57:35.150Z,26.3
2022-09-20T09:58:37.630Z,26.3
2022-09-20T09:59:40.126Z,26.3
2022-09-20T10:00:42.643Z,26.3
2022-09-20T10:01:45.400Z,26.3
2022-09-20T10:02:47.824Z,26.3
2022-09-20T10:03:50.311Z,26.3
2022-09-20T10:04:52.526Z,26.3
2022-09-20T10:05:54.475Z,26.3
2022-09-20T10:06:56.770Z,26.3
2022-09-20T10:07:58.981Z,26.3
2022-09-20T10:09:01.164Z,26.3
2022-09-20T10:10:03.639Z,26.3
2022-09-20T10:11:05.837Z,26.3
2022-09-20T10:12:07.529Z,26.3
2022-09-20T10:13:11.036Z,26.3
2022-09-20T10:14:13.316Z,26.3
2022-09-20T10:15:15.831Z,26.3
2022-09-20T10:16:17.952Z,26.3
2022-09-20T10:17:20.302Z,26.3
2022-09-20T10:18:22.501Z,26.3
2022-09-20T10:19:24.707Z,26.3
2022-09-20T10:20:26.906Z,26.3
2022-09-20T10:21:29.099Z,26.3
2022-09-20T10:22:31.110Z,26.3
2022-09-20T10:24:38.047Z,26.3
2022-09-20T10:25:40.259Z,26.3
2022-09-20T10:26:42.739Z,26.3
2022-09-20T10:27:44.962Z,26.3
2022-09-20T10:28:47.184Z,26.3
2022-09-20T10:29:49.532Z,26.3
2022-09-20T10:30:52.315Z,26.3
2022-09-20T10:31:55.077Z,26.3
2022-09-20T10:32:57.649Z,26.3
2022-09-20T10:33:59.956Z,26.3
2022-09-20T10:35:02.454Z,26.3
2022-09-20T10:36:05.075Z,26.3
2022-09-20T10:37:07.681Z,26.3
2022-09-20T10:38:09.730Z,26.3
2022-09-20T10:39:12.239Z,26.3
2022-09-20T10:40:14.920Z,26.3
2022-09-20T10:41:17.846Z,26.3
2022-09-20T10:42:19.774Z,26.3
2022-09-20T10:43:22.007Z,26.3
2022-09-20T10:44:24.187Z,26.3
2022-09-20T10:47:36.378Z,26.3
2022-09-20T10:48:38.584Z,26.3
2022-09-20T10:49:40.797Z,26.3
2022-09-20T10:50:43.278Z,26.3
2022-09-20T10:51:45.818Z,26.3
2022-09-20T10:52:48.331Z,26.3
2022-09-20T10:53:50.612Z,26.3
2022-09-20T10:54:53.140Z,26.3
2022-09-20T10:55:55.370Z,26.3
2022-09-20T10:56:57.987Z,26.3
2022-09-20T10:58:00.618Z,26.3
2022-09-20T10:59:03.147Z,26.3
2022-09-20T11:00:05.070Z,26.3
2022-09-20T11:01:07.453Z,26.3
2022-09-20T11:02:09.970Z,26.3
2022-09-20T11:03:12.435Z,26.3
2022-09-20T11:04:14.638Z,26.3
2022-09-20T11:05:16.551Z,26.3
2022-09-20T11:06:18.752Z,26.3
2022-09-20T11:07:21.224Z,26.3
2022-09-20T11:08:23.776Z,26.3
2022-09-20T11:09:26.060Z,26.3
2022-09-20T11:10:28.553Z,26.3
2022-09-20T11:11:30.753Z,26.3
2022-09-20T11:12:33.230Z,26.3
2022-09-20T11:13:35.705Z,26.3
2022-09-20T11:14:37.331Z,26.3
2022-09-20T11:15:39.816Z,26.3
2022-09-20T11:16:42.614Z,26.3
2022-09-20T11:17:44.814Z,26.3
2022-09-20T11:18:47.029Z,26.3
2022-09-20T11:19:49.492Z,26.3
2022-09-20T11:20:51.698Z,26.3
2022-09-20T11:21:54.212Z,26.3
2022-09-20T11:22:56.703Z,26.3
2022-09-20T11:23:59.277Z,26.3
2022-09-20T11:25:01.808Z,26.3
2022-09-20T11:26:04.039Z,26.3
2022-09-20T11:27:06.241Z,26.3
2022-09-20T11:28:08.724Z,26.3
2022-09-20T11:29:11.027Z,26.3
2022-09-20T11:30:12.969Z,26.3
2022-09-20T11:31:15.713Z,26.3
2022-09-20T11:32:18.205Z,26.3
2022-09-20T11:33:20.735Z,26.3
2022-09-20T11:34:22.962Z,26.3
2022-09-20T11:35:25.521Z,26.3
2022-09-20T11:36:28.040Z,26.3
2022-09-20T11:37:30.255Z,26.3
2022-09-20T11:38:32.776Z,26.3
2022-09-20T11:39:35.065Z,26.3
2022-09-20T11:40:37.627Z,26.3
2022-09-20T11:41:40.322Z,26.3
2022-09-20T11:42:42.528Z,26.3
2022-09-20T11:43:45.015Z,26.3
2022-09-20T11:44:47.497Z,26.3
2022-09-20T11:45:49.901Z,26.3
2022-09-20T11:46:52.258Z,26.3
2022-09-20T11:47:56.408Z,26.3
2022-09-20T11:48:58.895Z,26.3
2022-09-20T11:50:01.407Z,26.3
2022-09-20T11:51:03.626Z,26.3
2022-09-20T11:52:06.117Z,26.3
2022-09-20T11:53:08.326Z,26.3
2022-09-20T11:54:10.802Z,26.3
2022-09-20T11:55:13.073Z,26.3
2022-09-20T11:56:15.591Z,26.3
2022-09-20T11:57:17.799Z,26.3
2022-09-20T11:58:20.270Z,26.3
2022-09-20T11:59:22.485Z,26.3
2022-09-20T12:00:24.950Z,26.3
2022-09-20T12:02:32.717Z,26.3
2022-09-20T12:03:35.631Z,26.3
2022-09-20T12:04:39.146Z,26.3
2022-09-20T12:05:42.763Z,26.3
2022-09-20T12:06:44.971Z,26.3
2022-09-20T12:07:47.450Z,26.3
2022-09-20T12:08:49.926Z,26.3
2022-09-20T12:09:52.398Z,26.3
2022-09-20T12:10:54.907Z,26.3
2022-09-20T12:11:57.421Z,26.3
2022-09-20T12:12:59.662Z,26.3
2022-09-20T12:14:01.862Z,26.3
2022-09-20T12:15:04.392Z,26.3
2022-09-20T12:16:06.603Z,26.3
2022-09-20T12:17:09.250Z,26.3
2022-09-20T12:18:11.185Z,26.3
2022-09-20T12:19:13.095Z,26.3
2022-09-20T12:21:20.618Z,26.3
2022-09-20T12:22:22.812Z,26.3
2022-09-20T12:23:25.013Z,26.3
2022-09-20T12:24:27.491Z,26.3
2022-09-20T12:25:29.978Z,26.3
2022-09-20T12:26:32.472Z,26.3
2022-09-20T12:27:34.709Z,26.3
2022-09-20T12:28:37.209Z,26.3
2022-09-20T12:29:38.889Z,26.3
2022-09-20T12:30:41.364Z,26.3
2022-09-20T12:31:43.957Z,26.3
2022-09-20T12:32:46.502Z,26.3
2022-09-20T12:33:48.704Z,26.3
2022-09-20T12:34:51.209Z,26.3
2022-09-20T12:35:53.420Z,26.3
2022-09-20T12:36:56.003Z,26.3
2022-09-20T12:37:58.486Z,26.3
2022-09-20T12:39:00.660Z,26.3
2022-09-20T12:40:03.058Z,26.3
2022-09-20T12:41:05.409Z,26.3
2022-09-20T12:42:07.700Z,26.3
2022-09-20T12:43:10.337Z,26.3
2022-09-20T12:44:12.863Z,26.3
2022-09-20T12:45:15.332Z,26.3
2022-09-20T12:46:18.062Z,26.3
2022-09-20T12:47:20.408Z,26.3
2022-09-20T12:48:22.883Z,26.3
2022-09-20T12:49:25.348Z,26.3
2022-09-20T12:50:27.275Z,26.3
2022-09-20T12:51:29.248Z,26.3
2022-09-20T12:52:31.759Z,26.3
2022-09-20T12:53:34.240Z,26.3
2022-09-20T12:54:36.725Z,26.3
2022-09-20T12:55:38.669Z,26.3
2022-09-20T12:56:40.914Z,26.3
2022-09-20T12:57:43.417Z,26.3
2022-09-20T12:58:45.973Z,26.3
2022-09-20T12:59:48.469Z,26.3
2022-09-20T13:00:50.915Z,26.3
2022-09-20T13:01:53.673Z,26.3
2022-09-20T13:02:56.004Z,26.3
2022-09-20T13:03:58.508Z,26.3
2022-09-20T13:05:00.984Z,26.3
2022-09-20T13:06:03.218Z,26.3
2022-09-20T13:07:05.710Z,26.3
2022-09-20T13:08:08.209Z,26.3
2022-09-20T13:09:10.135Z,26.3
2022-09-20T13:10:12.624Z,26.3
2022-09-20T13:11:15.104Z,26.3
2022-09-20T13:12:17.308Z,26.3
2022-09-20T13:13:19.846Z,26.3
2022-09-20T13:14:22.373Z,26.3
2022-09-20T13:15:24.595Z,26.3
2022-09-20T13:16:26.695Z,26.3
2022-09-20T13:17:29.275Z,26.3
2022-09-20T13:18:31.755Z,26.3
2022-09-20T13:19:34.229Z,26.3
2022-09-20T13:20:36.713Z,26.3
2022-09-20T13:21:38.918Z,26.3
2022-09-20T13:22:41.393Z,26.3
2022-09-20T13:23:43.870Z,26.3
2022-09-20T13:24:45.865Z,26.3
2022-09-20T13:25:48.062Z,26.3
2022-09-20T13:26:50.534Z,26.3
2022-09-20T13:27:52.435Z,26.3
2022-09-20T13:28:54.671Z,26.3
2022-09-20T13:29:57.274Z,26.3
2022-09-20T13:30:59.802Z,26.3
2022-09-20T13:32:02.270Z,26.3
2022-09-20T13:33:04.764Z,26.3
2022-09-20T13:34:07.199Z,26.3
2022-09-20T13:35:09.488Z,26.3
2022-09-20T13:36:11.970Z,26.4
2022-09-20T13:37:14.442Z,26.3
2022-09-20T13:38:16.947Z,26.3
2022-09-20T13:39:19.495Z,26.3
2022-09-20T13:40:22.128Z,26.3
2022-09-20T13:41:24.721Z,26.3
2022-09-20T13:42:27.197Z,26.3
2022-09-20T13:43:29.312Z,26.4
2022-09-20T13:44:31.521Z,26.3
2022-09-20T13:45:35.330Z,26.4
2022-09-20T13:46:38.016Z,26.4
2022-09-20T13:47:40.223Z,26.4
2022-09-20T13:48:42.805Z,26.4
2022-09-20T13:49:45.279Z,26.4
2022-09-20T13:51:51.629Z,26.4
2022-09-20T13:52:53.598Z,26.4
2022-09-20T13:53:56.082Z,26.4
2022-09-20T13:54:58.319Z,26.4
2022-09-20T13:56:00.561Z,26.4
2022-09-20T13:57:02.808Z,26.4
2022-09-20T13:58:05.313Z,26.4
2022-09-20T13:59:07.509Z,26.4
2022-09-20T14:00:09.739Z,26.4
2022-09-20T14:01:12.430Z,26.4
2022-09-20T14:02:15.239Z,26.4
2022-09-20T14:03:17.512Z,26.4
2022-09-20T14:04:19.167Z,26.4
2022-09-20T14:05:21.098Z,26.4
2022-09-20T14:06:23.594Z,26.4
2022-09-20T14:07:25.794Z,26.4
2022-09-20T14:08:27.738Z,26.3
2022-09-20T14:09:30.264Z,26.4
2022-09-20T14:10:32.751Z,26.4
2022-09-20T14:11:34.972Z,26.4
2022-09-20T14:12:37.469Z,26.4
2022-09-20T14:13:39.938Z,26.4
2022-09-20T14:14:42.413Z,26.4
2022-09-20T14:15:44.936Z,26.3
2022-09-20T14:16:47.483Z,26.3
2022-09-20T14:17:49.976Z,26.3
2022-09-20T14:18:52.486Z,26.3
2022-09-20T14:19:54.984Z,26.3